createdAt,value
2022-09-10T00:01:56.115Z,0.70
2022-09-10T00:04:22.466Z,0.60
2022-09-10T00:06:48.752Z,0.50
2022-09-10T00:09:15.730Z,0.87
2022-09-10T00:11:42.452Z,0.80
2022-09-10T00:14:15.089Z,0.73
2022-09-10T00:16:41.686Z,1.00
2022-09-10T00:19:08.062Z,0.60
2022-09-10T00:21:35.519Z,0.70
2022-09-10T00:24:03.134Z,0.73
2022-09-10T00:26:34.439Z,0.60
2022-09-10T00:29:01.160Z,0.80
2022-09-10T00:31:29.914Z,0.70
2022-09-10T00:33:59.049Z,0.67
2022-09-10T00:36:28.725Z,1.10
2022-09-10T00:38:58.090Z,0.90
2022-09-10T00:41:25.808Z,0.80
2022-09-10T00:43:55.273Z,1.43
2022-09-10T00:46:33.570Z,0.73
2022-09-10T00:49:04.012Z,0.80
2022-09-10T00:51:33.896Z,0.80
2022-09-10T00:54:01.384Z,0.80
2022-09-10T00:56:28.881Z,0.97
2022-09-10T00:58:55.919Z,0.90
2022-09-10T01:01:23.051Z,0.73
2022-09-10T01:03:49.702Z,0.90
2022-09-10T01:06:17.352Z,1.00
2022-09-10T01:08:43.664Z,1.07
2022-09-10T01:11:34.546Z,0.80
2022-09-10T01:14:35.822Z,1.00
2022-09-10T01:17:10.139Z,0.80
2022-09-10T01:20:01.857Z,1.00
2022-09-10T01:22:49.442Z,0.70
2022-09-10T01:25:54.748Z,0.80
2022-09-10T01:28:45.605Z,0.70
2022-09-10T01:31:40.114Z,0.90
2022-09-10T01:34:16.699Z,0.70
2022-09-10T01:36:47.967Z,1.10
2022-09-10T01:39:17.568Z,0.90
2022-09-10T01:41:44.315Z,0.70
2022-09-10T01:44:31.590Z,0.70
2022-09-10T01:47:12.429Z,0.80
2022-09-10T01:49:48.126Z,0.90
2022-09-10T01:52:30.817Z,0.90
2022-09-10T01:55:31.395Z,0.70
2022-09-10T01:58:06.771Z,0.77
2022-09-10T02:00:35.978Z,0.90
2022-09-10T02:03:18.677Z,0.90
2022-09-10T02:05:49.306Z,1.10
2022-09-10T02:08:23.268Z,0.80
2022-09-10T02:10:55.822Z,0.70
2022-09-10T02:13:23.838Z,0.90
2022-09-10T02:15:52.362Z,0.80
2022-09-10T02:18:20.486Z,0.80
2022-09-10T02:20:48.980Z,0.80
2022-09-10T02:23:18.356Z,0.90
2022-09-10T02:25:45.357Z,0.80
2022-09-10T02:28:12.001Z,0.70
2022-09-10T02:30:38.381Z,0.90
2022-09-10T02:33:04.676Z,1.00
2022-09-10T02:35:31.129Z,1.00
2022-09-10T02:37:58.259Z,0.77
2022-09-10T02:40:25.417Z,1.00
2022-09-10T02:42:51.701Z,0.90
2022-09-10T02:45:18.023Z,1.20
2022-09-10T02:47:44.299Z,1.10
2022-09-10T02:50:11.596Z,1.10
2022-09-10T02:52:37.893Z,0.80
2022-09-10T02:55:04.662Z,1.00
2022-09-10T02:57:30.957Z,0.80
2022-09-10T02:59:57.250Z,1.10
2022-09-10T03:02:23.680Z,1.10
2022-09-10T03:04:50.002Z,0.73
2022-09-10T03:07:19.902Z,0.80
2022-09-10T03:09:47.456Z,0.90
2022-09-10T03:12:15.737Z,0.80
2022-09-10T03:14:45.107Z,1.10
2022-09-10T03:17:11.449Z,1.10
2022-09-10T03:19:37.737Z,1.13
2022-09-10T03:22:04.209Z,1.30
2022-09-10T03:24:30.521Z,1.30
2022-09-10T03:26:57.402Z,1.20
2022-09-10T03:29:24.245Z,1.20
2022-09-10T03:31:51.460Z,1.20
2022-09-10T03:34:18.707Z,0.90
2022-09-10T03:36:47.188Z,1.20
2022-09-10T03:39:14.807Z,1.00
2022-09-10T03:41:41.082Z,1.47
2022-09-10T03:44:07.494Z,0.90
2022-09-10T03:46:33.816Z,0.93
2022-09-10T03:49:03.234Z,1.10
2022-09-10T03:51:30.992Z,1.20
2022-09-10T03:53:58.869Z,0.97
2022-09-10T03:56:25.991Z,1.17
2022-09-10T03:58:52.370Z,0.97
2022-09-10T04:01:19.694Z,1.10
2022-09-10T04:03:47.390Z,1.20
2022-09-10T04:06:15.638Z,1.30
2022-09-10T04:08:45.502Z,1.27
2022-09-10T04:11:12.071Z,1.07
2022-09-10T04:13:38.368Z,1.03
2022-09-10T04:16:04.807Z,1.20
2022-09-10T04:18:34.059Z,1.53
2022-09-10T04:21:00.752Z,1.20
2022-09-10T04:23:27.064Z,1.17
2022-09-10T04:25:53.444Z,1.37
2022-09-10T04:28:19.800Z,1.27
2022-09-10T04:30:48.001Z,1.40
2022-09-10T04:33:14.291Z,1.30
2022-09-10T04:35:41.922Z,1.40
2022-09-10T04:38:08.539Z,1.13
2022-09-10T04:40:35.468Z,1.00
2022-09-10T04:43:01.815Z,1.20
2022-09-10T04:45:28.797Z,1.10
2022-09-10T04:47:56.493Z,1.20
2022-09-10T04:50:22.878Z,1.10
2022-09-10T04:52:49.179Z,1.03
2022-09-10T04:55:15.600Z,1.10
2022-09-10T04:57:42.161Z,1.20
2022-09-10T05:00:09.116Z,1.30
2022-09-10T05:02:37.228Z,1.57
2022-09-10T05:05:03.829Z,1.43
2022-09-10T05:07:30.824Z,1.23
2022-09-10T05:09:57.265Z,1.60
2022-09-10T05:12:24.094Z,1.20
2022-09-10T05:14:50.454Z,1.30
2022-09-10T05:17:16.753Z,1.57
2022-09-10T05:19:43.142Z,1.43
2022-09-10T05:22:09.744Z,1.50
2022-09-10T05:24:36.039Z,1.40
2022-09-10T05:27:02.346Z,1.33
2022-09-10T05:29:28.679Z,1.30
2022-09-10T05:31:55.161Z,1.17
2022-09-10T05:34:21.565Z,1.27
2022-09-10T05:36:48.615Z,1.30
2022-09-10T05:39:15.645Z,1.10
2022-09-10T05:41:43.303Z,1.17
2022-09-10T05:44:09.588Z,1.37
2022-09-10T05:46:35.998Z,1.17
2022-09-10T05:49:02.283Z,1.00
2022-09-10T05:51:30.565Z,1.50
2022-09-10T05:53:57.680Z,1.87
2022-09-10T05:56:25.832Z,1.30
2022-09-10T05:58:52.126Z,1.53
2022-09-10T06:01:18.436Z,1.50
2022-09-10T06:03:44.744Z,1.40
2022-09-10T06:06:11.167Z,1.43
2022-09-10T06:08:37.784Z,2.03
2022-09-10T06:11:06.055Z,1.53
2022-09-10T06:13:34.314Z,1.40
2022-09-10T06:16:01.174Z,1.47
2022-09-10T06:18:28.304Z,1.23
2022-09-10T06:21:01.986Z,1.27
2022-09-10T06:23:28.343Z,1.30
2022-09-10T06:26:04.154Z,1.53
2022-09-10T06:28:34.316Z,1.30
2022-09-10T06:31:00.924Z,1.07
2022-09-10T06:33:27.319Z,1.20
2022-09-10T06:36:00.869Z,1.40
2022-09-10T06:38:33.092Z,1.20
2022-09-10T06:41:01.695Z,1.20
2022-09-10T06:43:33.072Z,1.40
2022-09-10T06:45:59.583Z,1.10
2022-09-10T06:48:47.523Z,1.27
2022-09-10T06:51:15.027Z,1.20
2022-09-10T06:53:43.045Z,1.27
2022-09-10T06:56:13.147Z,1.13
2022-09-10T06:58:39.793Z,1.93
2022-09-10T07:01:17.746Z,1.30
2022-09-10T07:03:45.456Z,1.30
2022-09-10T07:06:15.263Z,1.20
2022-09-10T07:08:42.608Z,1.07
2022-09-10T07:11:14.197Z,1.20
2022-09-10T07:13:42.938Z,1.70
2022-09-10T07:16:10.059Z,1.20
2022-09-10T07:18:36.581Z,1.13
2022-09-10T07:21:16.011Z,1.20
2022-09-10T07:23:44.093Z,1.20
2022-09-10T07:26:16.077Z,1.27
2022-09-10T07:28:43.290Z,1.27
2022-09-10T07:31:13.512Z,1.47
2022-09-10T07:33:40.395Z,2.17
2022-09-10T07:36:06.824Z,1.87
2022-09-10T07:38:33.107Z,1.60
2022-09-10T07:41:00.219Z,2.20
2022-09-10T07:43:26.662Z,1.57
2022-09-10T07:45:53.046Z,1.80
2022-09-10T07:48:19.476Z,1.80
2022-09-10T07:50:45.766Z,1.90
2022-09-10T07:53:12.121Z,1.60
2022-09-10T07:55:38.467Z,1.30
2022-09-10T07:58:04.958Z,1.80
2022-09-10T08:00:31.721Z,1.70
2022-09-10T08:02:58.061Z,1.70
2022-09-10T08:05:24.388Z,1.53
2022-09-10T08:07:54.384Z,1.60
2022-09-10T08:10:21.254Z,1.70
2022-09-10T08:12:47.856Z,1.80
2022-09-10T08:15:14.522Z,2.10
2022-09-10T08:17:40.871Z,2.00
2022-09-10T08:20:09.818Z,1.77
2022-09-10T08:22:36.232Z,1.90
2022-09-10T08:25:03.210Z,1.97
2022-09-10T08:27:29.596Z,1.73
2022-09-10T08:29:56.271Z,1.80
2022-09-10T08:32:23.728Z,1.53
2022-09-10T08:34:50.036Z,2.20
2022-09-10T08:37:16.552Z,1.53
2022-09-10T08:39:43.147Z,1.80
2022-09-10T08:42:20.396Z,1.90
2022-09-10T08:45:02.780Z,1.70
2022-09-10T08:47:47.659Z,1.83
2022-09-10T08:50:40.082Z,1.90
2022-09-10T08:53:29.282Z,2.10
2022-09-10T08:56:02.118Z,2.00
2022-09-10T08:58:46.925Z,1.77
2022-09-10T09:01:52.863Z,1.60
2022-09-10T09:04:27.384Z,1.50
2022-09-10T09:07:00.756Z,1.57
2022-09-10T09:09:27.068Z,1.60
2022-09-10T09:12:21.913Z,1.70
2022-09-10T09:15:09.002Z,1.60
2022-09-10T09:17:38.594Z,1.77
2022-09-10T09:20:31.033Z,1.47
2022-09-10T09:23:12.537Z,1.83
2022-09-10T09:25:53.741Z,1.87
2022-09-10T09:28:35.208Z,1.80
2022-09-10T09:31:09.614Z,1.53
2022-09-10T09:33:36.842Z,1.53
2022-09-10T09:36:05.019Z,1.33
2022-09-10T09:38:37.202Z,1.40
2022-09-10T09:41:22.369Z,1.60
2022-09-10T09:43:55.755Z,1.57
2022-09-10T09:46:24.238Z,1.20
2022-09-10T09:48:55.742Z,1.30
2022-09-10T09:51:22.685Z,1.27
2022-09-10T09:54:12.174Z,1.60
2022-09-10T09:56:45.627Z,1.20
2022-09-10T09:59:26.858Z,1.77
2022-09-10T10:01:55.097Z,1.50
2022-09-10T10:04:25.066Z,1.50
2022-09-10T10:06:59.820Z,1.27
2022-09-10T10:09:29.481Z,1.00
2022-09-10T10:12:05.693Z,1.83
2022-09-10T10:14:31.922Z,1.10
2022-09-10T10:17:01.038Z,1.20
2022-09-10T10:19:27.508Z,1.23
2022-09-10T10:21:54.544Z,1.13
2022-09-10T10:24:39.042Z,1.33
2022-09-10T10:27:05.657Z,1.47
2022-09-10T10:29:32.180Z,1.27
2022-09-10T10:32:05.041Z,1.33
2022-09-10T10:34:55.636Z,1.30
2022-09-10T10:37:33.796Z,1.57
2022-09-10T10:40:26.297Z,1.37
2022-09-10T10:43:22.817Z,1.40
2022-09-10T10:46:03.229Z,1.20
2022-09-10T10:48:39.878Z,1.80
2022-09-10T10:51:31.980Z,1.53
2022-09-10T10:54:09.966Z,1.00
2022-09-10T10:56:45.936Z,1.60
2022-09-10T10:59:23.347Z,1.00
2022-09-10T11:02:00.885Z,1.40
2022-09-10T11:04:53.362Z,1.40
2022-09-10T11:07:34.563Z,1.53
2022-09-10T11:10:15.519Z,1.20
2022-09-10T11:13:03.260Z,1.40
2022-09-10T11:15:37.298Z,1.50
2022-09-10T11:18:22.458Z,1.70
2022-09-10T11:21:10.146Z,1.23
2022-09-10T11:23:49.488Z,1.30
2022-09-10T11:26:24.545Z,1.50
2022-09-10T11:29:03.512Z,1.50
2022-09-10T11:31:38.637Z,1.67
2022-09-10T11:34:08.704Z,1.23
2022-09-10T11:36:45.199Z,1.30
2022-09-10T11:39:30.232Z,1.13
2022-09-10T11:41:58.873Z,1.23
2022-09-10T11:44:59.443Z,1.33
2022-09-10T11:47:38.951Z,1.20
2022-09-10T11:50:34.270Z,1.27
2022-09-10T11:53:02.259Z,1.00
2022-09-10T11:55:52.706Z,1.10
2022-09-10T11:58:33.008Z,1.30
2022-09-10T12:01:13.399Z,1.43
2022-09-10T12:04:07.244Z,1.63
2022-09-10T12:06:49.794Z,2.00
2022-09-10T12:09:41.778Z,1.10
2022-09-10T12:12:22.222Z,1.23
2022-09-10T12:14:48.604Z,1.20
2022-09-10T12:17:17.490Z,1.97
2022-09-10T12:19:47.996Z,1.20
2022-09-10T12:22:36.791Z,1.20
2022-09-10T12:25:05.850Z,1.77
2022-09-10T12:27:45.415Z,1.40
2022-09-10T12:30:31.099Z,1.50
2022-09-10T12:33:00.572Z,1.20
2022-09-10T12:35:34.143Z,1.70
2022-09-10T12:38:39.355Z,1.27
2022-09-10T12:41:25.038Z,1.47
2022-09-10T12:43:59.532Z,1.37
2022-09-10T12:46:27.145Z,1.20
2022-09-10T12:48:56.216Z,1.10
2022-09-10T12:51:51.722Z,1.70
2022-09-10T12:54:27.342Z,1.20
2022-09-10T12:57:29.847Z,1.13
2022-09-10T13:00:21.835Z,1.53
2022-09-10T13:02:58.672Z,1.30
2022-09-10T13:05:45.650Z,2.10
2022-09-10T13:08:15.151Z,3.50
2022-09-10T13:10:59.752Z,1.40
2022-09-10T13:13:37.582Z,2.77
2022-09-10T13:16:05.910Z,1.60
2022-09-10T13:18:34.265Z,1.30
2022-09-10T13:21:23.539Z,1.17
2022-09-10T13:23:56.770Z,1.40
2022-09-10T13:26:25.759Z,1.20
2022-09-10T13:28:52.880Z,1.20
2022-09-10T13:31:29.077Z,1.40
2022-09-10T13:34:18.060Z,1.43
2022-09-10T13:37:23.249Z,1.30
2022-09-10T13:40:06.181Z,1.20
2022-09-10T13:43:09.551Z,1.87
2022-09-10T13:45:50.498Z,1.70
2022-09-10T13:48:27.424Z,1.33
2022-09-10T13:51:28.807Z,1.90
2022-09-10T13:53:59.022Z,1.30
2022-09-10T13:56:28.676Z,1.43
2022-09-10T13:59:01.401Z,1.30
2022-09-10T14:01:56.258Z,1.00
2022-09-10T14:04:49.044Z,1.20
2022-09-10T14:07:20.678Z,1.87
2022-09-10T14:09:59.082Z,1.20
2022-09-10T14:12:29.184Z,1.40
2022-09-10T14:14:59.978Z,1.33
2022-09-10T14:17:37.888Z,1.43
2022-09-10T14:20:17.896Z,1.10
2022-09-10T14:22:44.874Z,1.13
2022-09-10T14:25:35.863Z,1.60
2022-09-10T14:28:26.433Z,1.40
2022-09-10T14:31:19.223Z,1.57
2022-09-10T14:33:45.607Z,1.20
2022-09-10T14:36:16.897Z,1.67
2022-09-10T14:38:45.746Z,1.00
2022-09-10T14:41:27.349Z,1.27
2022-09-10T14:44:14.066Z,1.33
2022-09-10T14:46:57.186Z,1.30
2022-09-10T14:49:32.813Z,1.33
2022-09-10T14:52:00.143Z,1.80
2022-09-10T14:54:28.101Z,1.30
2022-09-10T14:56:57.538Z,1.30
2022-09-10T14:59:46.143Z,1.23
2022-09-10T15:02:30.634Z,1.43
2022-09-10T15:04:57.015Z,1.20
2022-09-10T15:07:27.531Z,1.17
2022-09-10T15:09:54.585Z,1.53
2022-09-10T15:12:30.797Z,1.20
2022-09-10T15:14:57.437Z,1.63
2022-09-10T15:17:23.747Z,1.17
2022-09-10T15:19:50.419Z,1.60
2022-09-10T15:22:25.471Z,1.40
2022-09-10T15:25:09.081Z,1.10
2022-09-10T15:27:36.700Z,1.27
2022-09-10T15:30:03.427Z,1.10
2022-09-10T15:32:30.658Z,1.07
2022-09-10T15:34:56.975Z,0.90
2022-09-10T15:37:23.261Z,1.10
2022-09-10T15:39:51.584Z,0.80
2022-09-10T15:42:18.018Z,1.40
2022-09-10T15:44:44.297Z,1.20
2022-09-10T15:47:10.585Z,1.73
2022-09-10T15:49:36.861Z,1.50
2022-09-10T15:52:03.347Z,1.47
2022-09-10T15:54:29.622Z,0.77
2022-09-10T15:56:56.330Z,0.93
2022-09-10T15:59:22.979Z,1.13
2022-09-10T16:01:49.961Z,1.40
2022-09-10T16:04:16.494Z,1.33
2022-09-10T16:06:43.495Z,1.50
2022-09-10T16:09:12.710Z,0.60
2022-09-10T16:11:41.472Z,0.90
2022-09-10T16:14:11.829Z,1.10
2022-09-10T16:16:39.492Z,0.90
2022-09-10T16:19:05.843Z,0.97
2022-09-10T16:21:35.979Z,0.90
2022-09-10T16:24:03.791Z,0.83
2022-09-10T16:26:34.458Z,0.87
2022-09-10T16:29:04.036Z,0.90
2022-09-10T16:31:32.977Z,1.00
2022-09-10T16:34:02.917Z,0.90
2022-09-10T16:36:33.101Z,1.80
2022-09-10T16:39:03.552Z,2.10
2022-09-10T16:41:30.047Z,1.50
2022-09-10T16:44:00.033Z,1.37
2022-09-10T16:46:27.835Z,1.00
2022-09-10T16:48:55.444Z,1.27
2022-09-10T16:51:24.241Z,1.40
2022-09-10T16:54:02.296Z,0.90
2022-09-10T16:56:33.517Z,0.90
2022-09-10T16:59:00.283Z,0.87
2022-09-10T17:01:26.951Z,0.83
2022-09-10T17:03:54.105Z,1.13
2022-09-10T17:06:29.199Z,1.10
2022-09-10T17:08:57.643Z,1.10
2022-09-10T17:11:26.403Z,1.30
2022-09-10T17:13:54.165Z,1.20
2022-09-10T17:16:20.438Z,1.13
2022-09-10T17:18:47.697Z,1.07
2022-09-10T17:21:18.124Z,2.20
2022-09-10T17:23:45.478Z,1.00
2022-09-10T17:26:12.314Z,1.23
2022-09-10T17:28:38.968Z,1.03
2022-09-10T17:31:05.555Z,1.33
2022-09-10T17:33:35.251Z,1.47
2022-09-10T17:36:03.629Z,1.10
2022-09-10T17:38:33.069Z,1.03
2022-09-10T17:41:02.190Z,1.37
2022-09-10T17:43:30.023Z,0.90
2022-09-10T17:45:56.378Z,1.30
2022-09-10T17:48:27.575Z,1.20
2022-09-10T17:50:54.492Z,1.60
2022-09-10T17:53:20.839Z,1.20
2022-09-10T17:55:47.141Z,1.30
2022-09-10T17:58:16.377Z,1.63
2022-09-10T18:00:48.721Z,1.10
2022-09-10T18:03:17.493Z,1.30
2022-09-10T18:05:44.972Z,1.00
2022-09-10T18:08:12.029Z,1.30
2022-09-10T18:10:38.616Z,1.13
2022-09-10T18:13:07.449Z,1.20
2022-09-10T18:15:34.189Z,1.20
2022-09-10T18:18:01.268Z,1.30
2022-09-10T18:20:29.147Z,1.30
2022-09-10T18:22:58.391Z,1.50
2022-09-10T18:25:27.950Z,1.10
2022-09-10T18:27:54.296Z,1.47
2022-09-10T18:30:20.838Z,1.30
2022-09-10T18:32:47.777Z,1.63
2022-09-10T18:35:14.500Z,2.20
2022-09-10T18:37:40.839Z,1.53
2022-09-10T18:40:07.924Z,1.30
2022-09-10T18:42:34.270Z,1.10
2022-09-10T18:45:00.576Z,2.00
2022-09-10T18:47:43.468Z,1.60
2022-09-10T18:50:11.203Z,1.80
2022-09-10T18:52:37.935Z,1.77
2022-09-10T18:55:04.564Z,1.87
2022-09-10T18:57:31.561Z,2.33
2022-09-10T18:59:58.073Z,2.00
2022-09-10T19:02:24.460Z,1.70
2022-09-10T19:05:10.370Z,1.63
2022-09-10T19:07:37.375Z,1.10
2022-09-10T19:10:05.360Z,1.33
2022-09-10T19:12:31.806Z,1.30
2022-09-10T19:14:58.100Z,1.50
2022-09-10T19:17:24.538Z,1.37
2022-09-10T19:19:50.871Z,1.50
2022-09-10T19:22:18.065Z,1.60
2022-09-10T19:24:54.610Z,1.23
2022-09-10T19:27:22.332Z,1.50
2022-09-10T19:29:50.003Z,1.30
2022-09-10T19:32:16.959Z,1.47
2022-09-10T19:34:43.466Z,2.03
2022-09-10T19:37:10.091Z,1.50
2022-09-10T19:39:36.488Z,1.73
2022-09-10T19:42:02.955Z,1.67
2022-09-10T19:44:29.281Z,1.37
2022-09-10T19:46:55.680Z,1.30
2022-09-10T19:49:22.162Z,1.70
2022-09-10T19:51:48.540Z,1.90
2022-09-10T19:54:14.875Z,2.07
2022-09-10T19:56:42.420Z,2.17
2022-09-10T19:59:09.776Z,1.40
2022-09-10T20:01:39.777Z,1.30
2022-09-10T20:04:08.729Z,1.20
2022-09-10T20:06:36.177Z,2.30
2022-09-10T20:09:04.624Z,1.23
2022-09-10T20:11:32.956Z,1.33
2022-09-10T20:14:07.844Z,1.40
2022-09-10T20:16:39.250Z,1.83
2022-09-10T20:19:06.880Z,1.40
2022-09-10T20:21:34.928Z,1.43
2022-09-10T20:24:01.261Z,1.70
2022-09-10T20:26:29.002Z,1.80
2022-09-10T20:29:16.518Z,1.33
2022-09-10T20:31:44.005Z,1.67
2022-09-10T20:34:13.421Z,1.90
2022-09-10T20:36:42.431Z,2.10
2022-09-10T20:39:11.222Z,1.70
2022-09-10T20:41:37.771Z,1.40
2022-09-10T20:44:05.085Z,1.60
2022-09-10T20:46:32.085Z,1.20
2022-09-10T20:49:03.150Z,1.70
2022-09-10T20:51:35.864Z,1.93
2022-09-10T20:54:03.607Z,1.63
2022-09-10T20:56:29.981Z,1.83
2022-09-10T20:58:57.191Z,2.13
2022-09-10T21:01:26.516Z,1.83
2022-09-10T21:03:57.085Z,1.70
2022-09-10T21:06:25.801Z,1.90
2022-09-10T21:08:55.331Z,1.83
2022-09-10T21:11:22.784Z,1.50
2022-09-10T21:13:51.326Z,1.30
2022-09-10T21:16:19.747Z,1.70
2022-09-10T21:18:54.358Z,1.90
2022-09-10T21:21:22.778Z,2.17
2022-09-10T21:24:00.272Z,1.77
2022-09-10T21:26:29.635Z,2.27
2022-09-10T21:28:58.810Z,3.10
2022-09-10T21:31:27.106Z,2.60
2022-09-10T21:34:00.678Z,1.60
2022-09-10T21:36:29.653Z,1.90
2022-09-10T21:38:59.383Z,1.50
2022-09-10T21:41:31.057Z,1.80
2022-09-10T21:43:58.045Z,1.40
2022-09-10T21:46:24.740Z,1.50
2022-09-10T21:48:51.229Z,1.63
2022-09-10T21:51:20.100Z,1.80
2022-09-10T21:53:47.242Z,1.80
2022-09-10T21:56:16.114Z,1.67
2022-09-10T21:58:45.796Z,1.40
2022-09-10T22:01:20.125Z,1.67
2022-09-10T22:03:47.644Z,1.60
2022-09-10T22:06:25.154Z,1.43
2022-09-10T22:09:00.538Z,1.80
2022-09-10T22:11:39.202Z,1.70
2022-09-10T22:14:08.565Z,1.40
2022-09-10T22:16:35.811Z,1.70
2022-09-10T22:19:06.409Z,1.77
2022-09-10T22:21:33.493Z,1.80
2022-09-10T22:23:59.913Z,1.67
2022-09-10T22:26:28.094Z,1.80
2022-09-10T22:28:59.185Z,1.93
2022-09-10T22:31:28.010Z,1.80
2022-09-10T22:33:59.448Z,1.90
2022-09-10T22:36:30.819Z,2.00
2022-09-10T22:38:59.596Z,1.70
2022-09-10T22:41:27.079Z,2.13
2022-09-10T22:43:53.846Z,1.73
2022-09-10T22:46:21.066Z,2.03
2022-09-10T22:48:47.436Z,1.73
2022-09-10T22:51:18.654Z,1.57
2022-09-10T22:53:45.838Z,2.10
2022-09-10T22:56:14.080Z,1.60
2022-09-10T22:58:41.061Z,2.07
2022-09-10T23:01:15.959Z,1.60
2022-09-10T23:03:44.045Z,1.60
2022-09-10T23:06:19.296Z,1.57
2022-09-10T23:08:48.583Z,1.70
2022-09-10T23:11:16.187Z,1.90
2022-09-10T23:13:48.185Z,2.77
2022-09-10T23:16:24.709Z,1.70
2022-09-10T23:18:54.654Z,1.80
2022-09-10T23:21:25.326Z,1.70
2022-09-10T23:23:54.304Z,1.87
2022-09-10T23:26:22.281Z,1.50
2022-09-10T23:28:49.246Z,1.57
2022-09-10T23:31:20.739Z,2.13
2022-09-10T23:33:55.040Z,1.73
2022-09-10T23:36:22.431Z,2.00
2022-09-10T23:38:48.901Z,2.10
2022-09-10T23:41:16.036Z,1.70
2022-09-10T23:43:43.797Z,2.20
2022-09-10T23:46:11.070Z,1.90
2022-09-10T23:48:38.268Z,2.30
2022-09-10T23:51:06.319Z,1.80
2022-09-10T23:53:33.236Z,2.10
2022-09-10T23:56:00.125Z,1.53
2022-09-10T23:58:26.406Z,1.97
